Time;durP1;ratioP1;P1;durP2;ratioP2;P2;SDS_P1;SDS_P2;PMS_P1;PMS_P2;Temp;Humidity;BMP_temperature;BMP_pressure;BME280_temperature;BME280_humidity;BME280_pressure;Samples;Min_cycle;Max_cycle;Signal;HPM_P1;HPM_P2
2022/01/28 00:01:50;;;;;;;22.90;10.87;;;;;;;-6.05;100.00;99908.83;1599919;89;21068;-69
2022/01/28 00:04:15;;;;;;;24.43;10.97;;;;;;;-6.05;100.00;99900.94;1582502;89;21068;-70
2022/01/28 00:06:41;;;;;;;23.77;11.57;;;;;;;-6.04;100.00;99900.84;1582155;89;21096;-70
2022/01/28 00:09:08;;;;;;;24.73;11.63;;;;;;;-6.01;100.00;99902.49;1603152;89;21113;-69
2022/01/28 00:11:36;;;;;;;25.07;11.87;;;;;;;-6.01;100.00;99897.23;1631476;88;21116;-70
2022/01/28 00:38:44;;;;;;;26.67;13.63;;;;;;;-5.89;100.00;99859.77;1602018;88;21088;-70
2022/01/28 00:41:09;;;;;;;26.83;13.13;;;;;;;-5.88;100.00;99851.40;1609188;89;21101;-69
2022/01/28 00:43:36;;;;;;;28.10;13.40;;;;;;;-5.90;100.00;99855.41;1612463;87;21563;-69
2022/01/28 00:46:04;;;;;;;26.50;13.47;;;;;;;-5.88;100.00;99848.30;1612377;89;21114;-70
2022/01/28 00:48:32;;;;;;;25.33;12.70;;;;;;;-5.89;100.00;99833.44;1591199;89;21078;-70
2022/01/28 00:50:59;;;;;;;27.10;13.80;;;;;;;-5.89;100.00;99833.44;1612083;89;21066;-70
2022/01/28 00:53:26;;;;;;;26.03;13.30;;;;;;;-5.89;100.00;99836.07;1644946;85;21021;-70
2022/01/28 00:55:54;;;;;;;26.53;12.63;;;;;;;-5.90;100.00;99818.55;1685681;84;21030;-70
2022/01/28 00:58:23;;;;;;;25.20;13.40;;;;;;;-5.89;100.00;99824.22;1678829;84;21034;-70
2022/01/28 01:00:50;;;;;;;27.43;13.23;;;;;;;-5.89;100.00;99824.22;1649427;87;21055;-70
2022/01/28 01:03:17;;;;;;;27.03;13.53;;;;;;;-5.89;100.00;99816.32;1654400;86;21077;-69
2022/01/28 01:05:44;;;;;;;28.67;14.27;;;;;;;-5.88;100.00;99815.85;1664179;86;21081;-70
2022/01/28 01:08:19;;;;;;;27.13;13.57;;;;;;;-5.87;100.00;99807.88;1663638;86;21083;-68
2022/01/28 01:10:46;;;;;;;27.27;14.00;;;;;;;-5.87;100.00;99805.72;1642005;86;21093;-70
2022/01/28 01:13:13;;;;;;;45.93;24.17;;;;;;;-5.87;100.00;99793.88;1664539;86;21471;-70
2022/01/28 01:15:44;;;;;;;42.33;21.70;;;;;;;-5.87;100.00;99793.88;1641888;86;21026;-71
2022/01/28 01:18:20;;;;;;;32.87;17.77;;;;;;;-5.87;100.00;99784.66;1641502;86;21010;-69
2022/01/28 01:23:24;;;;;;;28.60;13.88;;;;;;;-5.88;100.00;99782.94;1664753;86;21124;-69
2022/01/28 01:25:50;;;;;;;27.77;13.83;;;;;;;-5.90;100.00;99775.10;1661114;86;21069;-70
2022/01/28 01:28:15;;;;;;;28.53;14.33;;;;;;;-5.92;100.00;99769.06;1660834;86;21014;-69
2022/01/28 01:30:43;;;;;;;28.00;13.90;;;;;;;-5.92;100.00;99754.11;1664734;86;21049;-69
2022/01/28 01:33:11;;;;;;;29.77;15.13;;;;;;;-5.93;100.00;99756.37;1642201;86;21006;-69
2022/01/28 01:35:39;;;;;;;30.43;15.37;;;;;;;-5.92;100.00;99754.11;1662849;86;21070;-70
2022/01/28 01:38:09;;;;;;;26.33;13.80;;;;;;;-5.91;100.00;99747.92;1653743;87;21062;-69
2022/01/28 01:40:53;;;;;;;30.60;15.00;;;;;;;-5.87;100.00;99747.79;1661482;86;21097;-69
2022/01/28 01:46:11;;;;;;;27.63;14.57;;;;;;;-5.88;100.00;99746.06;1665997;86;21009;-70
2022/01/28 01:53:59;;;;;;;30.27;14.90;;;;;;;-5.84;100.00;99741.91;1705096;84;21041;-69
2022/01/28 01:56:26;;;;;;;28.03;14.27;;;;;;;-5.83;100.00;99737.02;1705222;84;21277;-70
2022/01/28 01:58:53;;;;;;;29.20;14.30;;;;;;;-5.82;100.00;99735.25;1698652;84;21049;-69
2022/01/28 02:01:20;;;;;;;32.27;15.50;;;;;;;-5.81;100.00;99731.20;1705243;84;21045;-70
2022/01/28 02:03:48;;;;;;;31.47;16.83;;;;;;;-5.78;100.00;99727.11;1712223;83;20988;-69
2022/01/28 02:06:22;;;;;;;27.33;14.63;;;;;;;-5.74;100.00;99731.76;1725734;83;21032;-69
2022/01/28 02:08:51;;;;;;;32.13;16.32;;;;;;;-5.72;100.00;99725.51;1702198;83;21493;-70
2022/01/28 02:11:18;;;;;;;30.53;15.53;;;;;;;-5.70;100.00;99728.52;1726271;83;21511;-68
2022/01/28 02:13:51;;;;;;;32.10;16.33;;;;;;;-5.70;100.00;99722.80;1729851;83;20996;-70
2022/01/28 02:16:18;;;;;;;31.30;16.70;;;;;;;-5.67;100.00;99716.04;1726077;83;21505;-70
2022/01/28 02:18:46;;;;;;;33.30;16.20;;;;;;;-5.62;100.00;99721.09;1726407;83;21528;-69
2022/01/28 02:21:15;;;;;;;31.00;15.47;;;;;;;-5.61;100.00;99716.20;1725997;83;21020;-70
2022/01/28 02:23:45;;;;;;;33.30;17.17;;;;;;;-5.59;100.00;99708.62;1726090;83;21056;-70
2022/01/28 02:26:14;;;;;;;33.53;16.83;;;;;;;-5.57;100.00;99704.12;1704201;83;21019;-69
2022/01/28 02:28:41;;;;;;;32.27;15.93;;;;;;;-5.53;100.00;99703.03;1701103;84;21082;-70
2022/01/28 02:31:08;;;;;;;31.13;15.90;;;;;;;-5.52;100.00;99702.58;1702762;84;21015;-69
2022/01/28 02:33:35;;;;;;;34.47;18.93;;;;;;;-5.50;100.00;99692.81;1701472;84;21555;-69
2022/01/28 02:36:05;;;;;;;30.13;15.80;;;;;;;-5.49;100.00;99689.70;1699412;84;21077;-69
2022/01/28 02:38:32;;;;;;;30.60;15.27;;;;;;;-5.49;100.00;99683.96;1695643;85;21518;-69
2022/01/28 02:41:01;;;;;;;29.17;15.33;;;;;;;-5.49;100.00;99686.59;1681578;84;21562;-69
2022/01/28 02:46:09;;;;;;;32.50;17.10;;;;;;;-5.50;100.00;99674.38;1605938;89;21036;-69
2022/01/28 02:48:33;;;;;;;29.47;15.43;;;;;;;-5.51;100.00;99674.44;1603154;89;21063;-69
2022/01/28 02:51:15;;;;;;;33.37;16.83;;;;;;;-5.52;100.00;99668.33;1606096;89;21588;-70
2022/01/28 02:58:44;;;;;;;32.37;16.30;;;;;;;-5.53;100.00;99656.08;1573378;91;21084;-69
2022/01/28 03:01:13;;;;;;;30.63;15.97;;;;;;;-5.52;100.00;99656.47;1553923;92;21639;-71
2022/01/28 03:03:43;;;;;;;31.43;16.57;;;;;;;-5.50;100.00;99653.30;1507822;94;21160;-69
2022/01/28 03:06:14;;;;;;;30.33;15.17;;;;;;;-5.50;100.00;99645.86;1524861;94;21118;-69
2022/01/28 03:08:45;;;;;;;31.33;15.63;;;;;;;-5.51;100.00;99653.37;1492348;96;21222;-70
2022/01/28 03:16:24;;;;;;;31.63;16.93;;;;;;;-5.51;100.00;99646.30;1474848;97;21114;-69
2022/01/28 03:18:55;;;;;;;30.53;16.13;;;;;;;-5.53;100.00;99645.06;1474518;97;21095;-70
2022/01/28 03:21:25;;;;;;;35.67;17.47;;;;;;;-5.51;100.00;99642.83;1471828;97;21619;-70
2022/01/28 03:23:50;;;;;;;31.97;16.97;;;;;;;-5.51;100.00;99644.98;1466300;97;21115;-70
2022/01/28 03:26:17;;;;;;;29.87;15.37;;;;;;;-5.50;100.00;99631.38;1466966;98;21136;-70
2022/01/28 03:28:44;;;;;;;29.80;14.80;;;;;;;-5.47;100.00;99627.23;1467387;98;21112;-69
2022/01/28 03:31:11;;;;;;;29.77;14.47;;;;;;;-5.46;100.00;99631.59;1467026;98;21100;-69
2022/01/28 03:33:38;;;;;;;30.57;15.87;;;;;;;-5.48;100.00;99623.76;1466922;98;21127;-70
2022/01/28 03:36:08;;;;;;;29.90;15.17;;;;;;;-5.47;100.00;99620.65;1475109;96;21054;-69
2022/01/28 03:38:35;;;;;;;28.23;14.50;;;;;;;-5.45;100.00;99630.20;1490237;96;21037;-69
2022/01/28 03:41:02;;;;;;;29.20;14.47;;;;;;;-5.41;100.00;99630.89;1491509;94;21125;-70
2022/01/28 03:43:30;;;;;;;28.90;14.40;;;;;;;-5.40;100.00;99629.49;1492312;96;21153;-68
2022/01/28 03:45:57;;;;;;;31.80;16.30;;;;;;;-5.38;100.00;99632.89;1492333;95;21177;-69
2022/01/28 03:48:24;;;;;;;31.30;16.03;;;;;;;-5.39;100.00;99628.55;1511109;95;21093;-69
2022/01/28 03:50:51;;;;;;;32.17;14.93;;;;;;;-5.36;100.00;99623.12;1510944;95;21097;-69
2022/01/28 03:53:19;;;;;;;29.23;14.70;;;;;;;-5.35;100.00;99620.01;1494312;96;21124;-70
2022/01/28 03:55:46;;;;;;;26.87;13.40;;;;;;;-5.36;100.00;99621.80;1534355;92;21106;-70
2022/01/28 03:58:14;;;;;;;27.40;13.93;;;;;;;-5.37;100.00;99621.41;1576704;91;21065;-69
2022/01/28 04:00:41;;;;;;;27.57;14.60;;;;;;;-5.40;100.00;99610.17;1556072;92;21092;-69
2022/01/28 04:16:29;;;;;;;30.17;14.20;;;;;;;-5.35;100.00;99609.02;1637199;87;21062;-69
2022/01/28 04:18:43;;;;;;;29.70;14.50;;;;;;;-5.36;100.00;99611.27;1637361;88;21057;-69
2022/01/28 04:21:10;;;;;;;28.47;14.40;;;;;;;-5.36;100.00;99602.03;1637380;88;21136;-69
2022/01/28 04:23:38;;;;;;;30.60;15.23;;;;;;;-5.34;100.00;99609.86;1637004;88;21140;-68
2022/01/28 04:26:05;;;;;;;28.33;14.17;;;;;;;-5.32;100.00;99611.11;1637352;88;21046;-70
2022/01/28 04:28:32;;;;;;;29.37;16.63;;;;;;;-5.31;100.00;99597.85;1637311;88;21562;-70
2022/01/28 04:30:59;;;;;;;30.27;16.53;;;;;;;-5.30;100.00;99592.11;1637543;88;21053;-70
2022/01/28 04:33:27;;;;;;;30.63;16.17;;;;;;;-5.29;100.00;99596.42;1637539;87;21050;-69
2022/01/28 04:35:56;;;;;;;29.07;14.83;;;;;;;-5.27;100.00;99596.75;1635451;88;21088;-69
2022/01/28 04:38:37;;;;;;;28.80;14.20;;;;;;;-5.27;100.00;99604.66;1641896;85;21122;-70
2022/01/28 04:41:09;;;;;;;29.37;14.60;;;;;;;-5.25;100.00;99606.73;1634172;86;21072;-70
2022/01/28 04:43:35;;;;;;;29.00;14.97;;;;;;;-5.22;100.00;99619.77;1629469;88;21131;-69
2022/01/28 04:48:36;;;;;;;29.52;15.40;;;;;;;-5.17;100.00;99607.64;1611782;89;21600;-69
2022/01/28 04:56:23;;;;;;;27.70;13.97;;;;;;;-5.18;100.00;99593.61;1577271;90;21072;-70
2022/01/28 04:58:53;;;;;;;31.97;14.83;;;;;;;-5.16;100.00;99596.17;1624591;88;21616;-68
2022/01/28 05:03:54;;;;;;;27.40;15.47;;;;;;;-5.16;100.00;99593.53;1576988;90;21136;-69
2022/01/28 05:06:35;;;;;;;29.40;15.60;;;;;;;-5.14;100.00;99590.34;1595303;90;21056;-74
2022/01/28 05:27:21;;;;;;;31.97;16.93;;;;;;;-5.07;100.00;99561.88;1664924;86;21277;-68
2022/01/28 05:29:48;;;;;;;32.93;17.00;;;;;;;-5.09;100.00;99553.20;1674427;85;21022;-68
2022/01/28 05:32:15;;;;;;;28.27;15.07;;;;;;;-5.09;100.00;99561.11;1674370;85;21113;-69
2022/01/28 05:34:42;;;;;;;26.73;13.40;;;;;;;-5.07;100.00;99555.28;1665236;86;21031;-69
2022/01/28 05:37:09;;;;;;;29.60;14.60;;;;;;;-5.06;100.00;99545.97;1676189;85;21546;-73
2022/01/28 05:39:36;;;;;;;28.43;14.37;;;;;;;-5.04;100.00;99536.66;1676941;85;21014;-69
2022/01/28 05:42:04;;;;;;;31.07;15.57;;;;;;;-5.04;100.00;99548.05;1693582;84;21076;-68
2022/01/28 05:44:31;;;;;;;29.43;15.27;;;;;;;-5.05;100.00;99570.06;1695828;85;21034;-69
2022/01/28 05:47:03;;;;;;;27.27;15.13;;;;;;;-5.04;100.00;99567.83;1697425;84;21538;-69
2022/01/28 05:49:27;;;;;;;32.93;17.90;;;;;;;-5.01;100.00;99561.07;1677213;84;21073;-68
2022/01/28 05:51:55;;;;;;;30.60;15.30;;;;;;;-5.00;100.00;99579.89;1697386;84;21511;-68
2022/01/28 05:54:24;;;;;;;28.50;14.87;;;;;;;-4.98;100.00;99567.47;1695512;84;21002;-69
2022/01/28 05:56:51;;;;;;;29.83;15.10;;;;;;;-4.94;100.00;99564.67;1695473;83;21003;-70
2022/01/28 05:59:19;;;;;;;26.60;13.77;;;;;;;-4.93;100.00;99578.26;1697008;84;21089;-69
2022/01/28 06:01:46;;;;;;;33.43;16.87;;;;;;;-4.92;100.00;99575.98;1702188;83;21061;-67
2022/01/28 06:04:15;;;;;;;31.00;15.70;;;;;;;-4.89;100.00;99573.19;1729976;83;21025;-68
2022/01/28 06:06:45;;;;;;;31.37;15.17;;;;;;;-4.87;100.00;99569.55;1729112;83;21041;-68
2022/01/28 06:09:13;;;;;;;27.57;14.20;;;;;;;-4.85;100.00;99565.48;1728385;83;21021;-71
2022/01/28 06:11:40;;;;;;;27.70;14.60;;;;;;;-4.81;100.00;99555.16;1707523;83;20990;-70
2022/01/28 06:14:07;;;;;;;30.13;14.70;;;;;;;-4.78;100.00;99557.61;1714438;84;21073;-68
2022/01/28 06:16:35;;;;;;;26.13;13.47;;;;;;;-4.75;100.00;99556.60;1714411;83;21501;-68
2022/01/28 06:19:02;;;;;;;30.37;15.97;;;;;;;-4.73;100.00;99552.92;1659739;84;21066;-69
2022/01/28 06:21:29;;;;;;;28.43;13.57;;;;;;;-4.73;100.00;99551.61;1715247;83;21046;-68
2022/01/28 06:23:56;;;;;;;27.87;14.07;;;;;;;-4.71;100.00;99541.84;1715861;83;21065;-68
2022/01/28 06:26:23;;;;;;;30.70;14.90;;;;;;;-4.71;100.00;99535.25;1731120;83;21134;-68
2022/01/28 06:28:50;;;;;;;29.77;15.17;;;;;;;-4.69;100.00;99535.14;1707279;83;20994;-71
2022/01/28 06:31:17;;;;;;;31.90;16.60;;;;;;;-4.67;100.00;99530.66;1707847;83;21006;-70
2022/01/28 06:33:44;;;;;;;31.57;15.47;;;;;;;-4.66;100.00;99536.29;1733003;82;21013;-69
2022/01/28 06:36:11;;;;;;;33.40;16.27;;;;;;;-4.65;100.00;99530.93;1697801;83;21500;-70
2022/01/28 06:38:38;;;;;;;30.30;15.30;;;;;;;-4.62;100.00;99529.89;1664587;85;21042;-71
2022/01/28 06:41:05;;;;;;;33.03;16.63;;;;;;;-4.59;100.00;99522.65;1692484;84;21116;-73
2022/01/28 06:43:33;;;;;;;29.30;15.40;;;;;;;-4.56;100.00;99524.28;1705691;83;21497;-71
2022/01/28 06:46:00;;;;;;;31.23;15.70;;;;;;;-4.51;100.00;99521.39;1682201;83;21033;-70
2022/01/28 06:48:27;;;;;;;33.93;17.43;;;;;;;-4.49;100.00;99523.47;1706689;83;21009;-69
2022/01/28 06:50:56;;;;;;;34.40;18.47;;;;;;;-4.46;100.00;99513.58;1662414;84;21662;-70
2022/01/28 06:53:29;;;;;;;39.77;20.10;;;;;;;-4.44;100.00;99513.02;1642665;85;21074;-70
2022/01/28 06:55:56;;;;;;;32.83;18.13;;;;;;;-4.43;100.00;99514.70;1662497;84;21017;-70
2022/01/28 06:58:23;;;;;;;32.57;17.27;;;;;;;-4.42;100.00;99516.89;1644077;85;21010;-68
2022/01/28 07:00:50;;;;;;;32.17;18.47;;;;;;;-4.40;100.00;99513.69;1668854;84;21594;-69
2022/01/28 07:03:17;;;;;;;30.03;16.20;;;;;;;-4.36;100.00;99500.69;1660673;84;21092;-70
2022/01/28 07:05:44;;;;;;;28.30;14.80;;;;;;;-4.33;100.00;99512.39;1664806;84;21539;-70
2022/01/28 07:08:12;;;;;;;28.93;15.50;;;;;;;-4.30;100.00;99509.58;1647829;84;21021;-70
2022/01/28 07:10:39;;;;;;;28.00;14.73;;;;;;;-4.25;100.00;99509.30;1664212;84;21058;-67
2022/01/28 07:13:07;;;;;;;30.33;15.57;;;;;;;-4.22;100.00;99508.64;1642419;85;21095;-70
2022/01/28 07:15:34;;;;;;;27.40;14.40;;;;;;;-4.19;100.00;99506.31;1649901;84;21116;-72
2022/01/28 07:18:04;;;;;;;28.00;14.30;;;;;;;-4.20;100.00;99504.59;1668897;84;21006;-70
2022/01/28 07:20:33;;;;;;;28.07;14.13;;;;;;;-4.18;100.00;99505.35;1662975;84;21058;-70
2022/01/28 07:23:00;;;;;;;32.30;15.97;;;;;;;-4.16;100.00;99501.30;1703368;83;21509;-69
2022/01/28 07:25:27;;;;;;;40.27;17.73;;;;;;;-4.15;100.00;99498.58;1709976;82;21517;-68
2022/01/28 07:27:54;;;;;;;30.57;15.90;;;;;;;-4.10;100.00;99489.91;1703511;83;21020;-70
2022/01/28 07:30:23;;;;;;;27.43;14.93;;;;;;;-4.03;100.00;99487.28;1708941;83;21045;-69
2022/01/28 07:32:52;;;;;;;31.63;15.27;;;;;;;-3.99;100.00;99490.59;1708653;82;21564;-68
2022/01/28 07:35:19;;;;;;;35.87;17.60;;;;;;;-3.95;100.00;99484.17;1708306;82;21008;-71
2022/01/28 07:37:45;;;;;;;32.27;17.17;;;;;;;-3.93;100.00;99473.06;1707212;82;21001;-70
2022/01/28 07:40:13;;;;;;;33.10;17.50;;;;;;;-3.92;100.00;99469.47;1705184;83;20992;-70
2022/01/28 07:42:40;;;;;;;47.93;25.77;;;;;;;-3.88;100.00;99465.72;1702293;82;21032;-68
2022/01/28 07:45:09;;;;;;;54.83;30.37;;;;;;;-3.83;100.00;99460.13;1707259;83;21528;-67
2022/01/28 07:47:36;;;;;;;41.10;23.83;;;;;;;-3.80;100.00;99456.47;1693238;84;21053;-68
2022/01/28 07:50:08;;;;;;;34.77;20.20;;;;;;;-3.81;100.00;99451.63;1699840;82;21056;-68
2022/01/28 07:52:35;;;;;;;31.50;17.20;;;;;;;-3.78;100.00;99446.17;1704224;82;20989;-71
2022/01/28 07:55:05;;;;;;;28.87;15.60;;;;;;;-3.76;100.00;99440.31;1700090;84;21000;-71
2022/01/28 07:57:32;;;;;;;30.27;15.33;;;;;;;-3.73;100.00;99438.81;1688903;84;21520;-71
2022/01/28 08:00:00;;;;;;;26.83;14.77;;;;;;;-3.69;100.00;99434.19;1688067;84;21067;-70
2022/01/28 08:02:27;;;;;;;31.30;16.27;;;;;;;-3.64;100.00;99430.30;1685557;85;21300;-72
2022/01/28 08:04:55;;;;;;;31.97;18.57;;;;;;;-3.55;100.00;99431.52;1659238;84;21523;-71
2022/01/28 08:07:23;;;;;;;44.37;28.70;;;;;;;-3.50;100.00;99424.64;1645251;86;21043;-70
2022/01/28 08:09:50;;;;;;;33.77;21.00;;;;;;;-3.47;100.00;99419.14;1667970;86;22286;-70
2022/01/28 08:12:19;;;;;;;30.73;17.60;;;;;;;-3.40;100.00;99412.99;1645588;86;21023;-70
2022/01/28 08:14:46;;;;;;;31.17;17.23;;;;;;;-3.37;100.00;99407.03;1644377;86;21087;-73
2022/01/28 08:17:13;;;;;;;31.37;15.57;;;;;;;-3.35;100.00;99408.27;1668232;86;21141;-70
2022/01/28 08:19:41;;;;;;;29.30;17.27;;;;;;;-3.33;100.00;99398.44;1668152;85;21099;-69
2022/01/28 08:22:07;;;;;;;38.93;22.23;;;;;;;-3.30;100.00;99400.89;1656294;85;21054;-70
2022/01/28 08:24:34;;;;;;;45.17;26.90;;;;;;;-3.28;100.00;99405.12;1663212;85;21053;-70
2022/01/28 08:27:01;;;;;;;33.53;19.23;;;;;;;-3.25;100.00;99397.00;1641342;85;21006;-70
2022/01/28 08:29:28;;;;;;;33.27;19.43;;;;;;;-3.28;100.00;99394.54;1663230;85;21620;-70
2022/01/28 08:31:55;;;;;;;31.23;18.20;;;;;;;-3.25;100.00;99388.22;1694513;83;21032;-71
2022/01/28 08:34:23;;;;;;;35.47;17.67;;;;;;;-3.21;100.00;99380.94;1695164;85;21096;-69
2022/01/28 08:36:51;;;;;;;30.67;16.43;;;;;;;-3.19;100.00;99379.88;1651167;86;21518;-71
2022/01/28 08:39:20;;;;;;;30.30;16.33;;;;;;;-3.20;100.00;99373.39;1645098;86;21053;-70
2022/01/28 08:41:47;;;;;;;29.00;15.63;;;;;;;-3.19;100.00;99379.88;1673319;84;21601;-72
2022/01/28 08:44:14;;;;;;;38.83;22.73;;;;;;;-3.10;100.00;99367.40;1649699;85;21131;-70
2022/01/28 08:46:41;;;;;;;40.17;25.40;;;;;;;-3.04;100.00;99358.69;1663335;84;21026;-70
2022/01/28 08:49:08;;;;;;;30.83;17.03;;;;;;;-3.00;100.00;99356.20;1703108;84;21100;-68
2022/01/28 08:51:37;;;;;;;30.00;16.03;;;;;;;-2.98;100.00;99346.36;1671639;84;21541;-69
2022/01/28 08:54:06;;;;;;;29.40;16.07;;;;;;;-2.93;100.00;99350.88;1704828;84;21059;-69
2022/01/28 08:56:33;;;;;;;29.30;15.00;;;;;;;-2.91;100.00;99343.20;1712789;84;21404;-70
2022/01/28 08:59:00;;;;;;;27.80;15.13;;;;;;;-2.87;100.00;99337.22;1708179;84;21011;-68
2022/01/28 09:01:29;;;;;;;31.83;18.60;;;;;;;-2.86;100.00;99332.31;1707737;84;21041;-69
2022/01/28 09:03:56;;;;;;;33.47;16.63;;;;;;;-2.80;100.00;99328.41;1706115;84;21031;-71
2022/01/28 09:06:23;;;;;;;31.27;17.80;;;;;;;-2.75;100.00;99323.17;1712358;83;21036;-69
2022/01/28 09:09:00;;;;;;;35.50;19.07;;;;;;;-2.72;100.00;99312.38;1729014;83;21036;-70
2022/01/28 09:13:55;;;;;;;31.97;17.10;;;;;;;-2.63;100.00;99299.00;1729210;83;21063;-70
2022/01/28 09:16:22;;;;;;;34.20;18.37;;;;;;;-2.60;100.00;99293.95;1729602;83;21019;-69
2022/01/28 09:18:49;;;;;;;34.87;18.97;;;;;;;-2.54;100.00;99290.90;1729872;83;22280;-71
2022/01/28 09:21:23;;;;;;;34.67;20.17;;;;;;;-2.51;100.00;99290.70;1726101;83;20997;-69
2022/01/28 09:23:50;;;;;;;32.27;16.77;;;;;;;-2.47;100.00;99286.88;1726459;83;21448;-70
2022/01/28 09:26:23;;;;;;;30.77;16.50;;;;;;;-2.45;100.00;99288.09;1730105;83;21078;-72
2022/01/28 09:28:50;;;;;;;33.27;17.43;;;;;;;-2.42;100.00;99280.78;1726324;83;21000;-70
2022/01/28 09:31:17;;;;;;;31.47;17.43;;;;;;;-2.38;100.00;99272.14;1726170;83;20972;-71
2022/01/28 09:33:45;;;;;;;27.13;15.70;;;;;;;-2.35;100.00;99270.13;1725997;83;20980;-71
2022/01/28 09:36:12;;;;;;;30.00;16.73;;;;;;;-2.30;100.00;99261.87;1713996;83;21077;-71
2022/01/28 09:38:39;;;;;;;29.57;14.53;;;;;;;-2.24;100.00;99257.45;1695402;85;21378;-72
2022/01/28 09:41:08;;;;;;;30.63;16.90;;;;;;;-2.25;100.00;99257.07;1696599;84;21089;-72
2022/01/28 09:43:35;;;;;;;32.00;17.40;;;;;;;-2.29;100.00;99261.73;1695224;85;21049;-72
2022/01/28 09:46:03;;;;;;;36.73;18.83;;;;;;;-2.28;100.00;99255.98;1695392;84;21041;-70
2022/01/28 09:48:31;;;;;;;32.30;18.00;;;;;;;-2.24;100.00;99243.38;1695125;85;21089;-71
2022/01/28 09:51:01;;;;;;;30.13;16.07;;;;;;;-2.18;100.00;99234.97;1728923;83;21083;-70
2022/01/28 09:53:29;;;;;;;30.83;16.07;;;;;;;-2.13;100.00;99225.73;1731275;83;21058;-69
2022/01/28 09:55:57;;;;;;;29.00;15.97;;;;;;;-2.10;100.00;99226.84;1729073;83;21065;-69
2022/01/28 09:58:24;;;;;;;32.80;17.33;;;;;;;-2.06;100.00;99226.63;1714796;82;21460;-70
2022/01/28 10:00:51;;;;;;;32.57;17.67;;;;;;;-2.00;100.00;99220.88;1715757;83;21019;-69
2022/01/28 10:03:19;;;;;;;31.17;16.87;;;;;;;-1.93;100.00;99220.34;1714600;83;21090;-71
2022/01/28 10:05:54;;;;;;;32.07;15.87;;;;;;;-1.83;100.00;99223.15;1672399;84;21077;-70
2022/01/28 10:08:27;;;;;;;29.30;15.93;;;;;;;-1.78;100.00;99211.73;1720637;83;21002;-68
2022/01/28 10:16:19;;;;;;;29.07;15.23;;;;;;;-1.81;100.00;99197.86;1513871;94;21165;-70
2022/01/28 10:18:56;;;;;;;28.10;15.43;;;;;;;-1.80;100.00;99204.38;1516598;93;21108;-68
2022/01/28 10:21:36;;;;;;;30.93;16.20;;;;;;;-1.76;100.00;99191.75;1511506;94;21089;-72
2022/01/28 10:24:26;;;;;;;33.90;18.27;;;;;;;-1.74;100.00;99193.80;1519238;92;21290;-70
2022/01/28 10:27:05;;;;;;;33.03;18.43;;;;;;;-1.67;100.00;99192.38;1515902;94;21565;-69
2022/01/28 10:29:32;;;;;;;32.57;17.20;;;;;;;-1.59;100.00;99175.44;1515209;94;21076;-69
2022/01/28 10:32:09;;;;;;;32.67;16.87;;;;;;;-1.54;100.00;99170.64;1517440;94;21064;-68
2022/01/28 10:34:39;;;;;;;32.90;17.23;;;;;;;-1.46;100.00;99162.09;1512873;93;21107;-70
2022/01/28 10:37:22;;;;;;;29.23;15.47;;;;;;;-1.38;100.00;99157.06;1515302;94;21084;-69
2022/01/28 10:40:04;;;;;;;28.63;15.97;;;;;;;-1.34;100.00;99156.34;1512980;94;21111;-69
2022/01/28 10:42:39;;;;;;;28.83;15.72;;;;;;;-1.26;100.00;99150.45;1503872;94;21605;-71
2022/01/28 10:45:20;;;;;;;30.60;16.10;;;;;;;-1.24;100.00;99146.73;1506971;95;21628;-70
2022/01/28 10:48:02;;;;;;;32.07;16.97;;;;;;;-1.27;100.00;99135.52;1506954;95;21132;-72
2022/01/28 10:50:35;;;;;;;30.27;14.80;;;;;;;-1.26;100.00;99131.39;1507337;95;21044;-69
2022/01/28 10:53:11;;;;;;;29.25;14.78;;;;;;;-1.29;100.00;99123.69;1507142;95;21064;-69
2022/01/28 10:55:44;;;;;;;30.07;15.00;;;;;;;-1.31;100.00;99116.34;1507018;95;21652;-69
2022/01/28 10:58:15;;;;;;;26.42;14.23;;;;;;;-1.34;100.00;99112.59;1547692;93;21097;-69
2022/01/28 11:00:44;;;;;;;27.20;14.50;;;;;;;-1.34;100.00;99104.14;1510807;94;21133;-70
2022/01/28 11:03:13;;;;;;;28.23;14.43;;;;;;;-1.30;100.00;99100.77;1511167;94;21171;-69
2022/01/28 11:05:41;;;;;;;27.73;15.10;;;;;;;-1.32;100.00;99097.39;1529996;94;21072;-69
2022/01/28 11:08:11;;;;;;;31.87;18.23;;;;;;;-1.34;100.00;99101.48;1540831;91;21139;-68
2022/01/28 11:10:40;;;;;;;34.70;19.70;;;;;;;-1.35;100.00;99094.97;1543120;92;21130;-69
2022/01/28 11:13:07;;;;;;;28.50;17.17;;;;;;;-1.35;100.00;99086.55;1579222;88;21681;-69
2022/01/28 11:15:35;;;;;;;29.70;17.13;;;;;;;-1.35;100.00;99081.71;1580404;91;21138;-68
2022/01/28 11:18:04;;;;;;;33.90;17.43;;;;;;;-1.38;100.00;99080.61;1580590;91;21086;-70
2022/01/28 11:20:51;;;;;;;40.00;22.60;;;;;;;-1.43;100.00;99072.20;1580588;91;21086;-69
2022/01/28 11:23:35;;;;;;;38.77;20.97;;;;;;;-1.42;100.00;99073.38;1580751;91;21110;-70
2022/01/28 11:26:24;;;;;;;34.43;18.83;;;;;;;-1.39;100.00;99066.52;1580509;91;21655;-69
2022/01/28 11:31:44;;;;;;;32.27;16.97;;;;;;;-1.43;100.00;99056.29;1527848;94;21139;-69
2022/01/28 11:34:30;;;;;;;31.30;16.70;;;;;;;-1.41;100.00;99057.01;1519262;94;21117;-68
2022/01/28 11:37:14;;;;;;;34.37;18.77;;;;;;;-1.40;100.00;99063.52;1485917;95;21188;-70
2022/01/28 11:39:46;;;;;;;32.03;19.00;;;;;;;-1.42;100.00;99056.63;1461546;97;21678;-69
2022/01/28 11:42:27;;;;;;;28.83;15.67;;;;;;;-1.42;100.00;99058.80;1479429;96;21256;-69
2022/01/28 11:44:56;;;;;;;34.20;18.90;;;;;;;-1.44;100.00;99047.47;1463038;97;21578;-69
2022/01/28 11:47:29;;;;;;;30.47;17.13;;;;;;;-1.42;100.00;99047.35;1452596;99;21232;-70
2022/01/28 11:50:13;;;;;;;31.02;17.85;;;;;;;-1.40;100.00;99038.79;1452883;99;21180;-68
2022/01/28 11:52:48;;;;;;;28.43;16.20;;;;;;;-1.40;100.00;99033.48;1452507;99;21136;-70
2022/01/28 11:55:29;;;;;;;33.53;18.40;;;;;;;-1.39;100.00;99027.23;1452061;99;21156;-69
2022/01/28 11:58:06;;;;;;;35.90;19.77;;;;;;;-1.39;100.00;99021.93;1479683;96;21700;-69
2022/01/28 12:00:39;;;;;;;34.77;19.83;;;;;;;-1.36;100.00;99019.05;1495621;96;21089;-69
2022/01/28 12:03:28;;;;;;;35.70;20.47;;;;;;;-1.34;100.00;99007.34;1495701;96;21112;-69
2022/01/28 12:06:17;;;;;;;35.43;20.53;;;;;;;-1.33;100.00;99009.50;1495627;96;21077;-69
2022/01/28 12:08:45;;;;;;;36.17;19.30;;;;;;;-1.31;100.00;99000.97;1495446;96;21117;-69
2022/01/28 12:11:14;;;;;;;37.10;21.00;;;;;;;-1.29;100.00;99000.36;1473700;95;21124;-70
2022/01/28 12:16:40;;;;;;;34.27;19.53;;;;;;;-1.25;100.00;99003.61;1526851;94;21160;-70
2022/01/28 12:19:16;;;;;;;38.70;21.80;;;;;;;-1.26;100.00;99001.91;1527287;94;21540;-69
2022/01/28 12:22:04;;;;;;;35.67;18.10;;;;;;;-1.26;100.00;98998.77;1538187;92;21054;-68
2022/01/28 12:24:32;;;;;;;36.97;19.43;;;;;;;-1.24;100.00;98991.55;1541209;92;21614;-68
2022/01/28 12:27:06;;;;;;;33.87;18.90;;;;;;;-1.27;100.00;98989.14;1537589;92;21666;-69
2022/01/28 12:29:35;;;;;;;30.47;17.10;;;;;;;-1.27;100.00;98987.81;1535184;93;22332;-68
2022/01/28 12:32:04;;;;;;;32.97;17.47;;;;;;;-1.23;100.00;98981.78;1616579;88;21589;-68
2022/01/28 12:34:32;;;;;;;32.33;17.07;;;;;;;-1.22;100.00;98987.42;1653510;87;21498;-71
2022/01/28 12:37:03;;;;;;;32.90;18.20;;;;;;;-1.21;100.00;98978.52;1641882;87;21119;-68
2022/01/28 12:39:35;;;;;;;30.93;17.10;;;;;;;-1.22;100.00;98981.66;1614488;88;21064;-68
2022/01/28 12:42:21;;;;;;;31.90;17.80;;;;;;;-1.20;100.00;98972.26;1614398;87;21099;-69
2022/01/28 12:44:38;;;;;;;30.30;17.43;;;;;;;-1.18;100.00;98966.34;1636444;87;21497;-71
2022/01/28 12:47:09;;;;;;;34.33;20.13;;;;;;;-1.17;100.00;98966.22;1636181;88;21092;-69
2022/01/28 12:49:38;;;;;;;33.03;18.57;;;;;;;-1.13;100.00;98958.00;1636444;88;21095;-70
2022/01/28 12:52:08;;;;;;;34.57;20.00;;;;;;;-1.12;100.00;98949.09;1605006;89;21113;-69
2022/01/28 12:54:49;;;;;;;36.67;21.53;;;;;;;-1.11;100.00;98941.50;1584356;89;21085;-70
2022/01/28 12:57:18;;;;;;;64.90;35.10;;;;;;;-1.09;100.00;98928.95;1584273;89;21066;-68
2022/01/28 12:59:47;;;;;;;74.87;33.40;;;;;;;-1.06;100.00;98922.91;1583981;89;21605;-70
2022/01/28 13:02:15;;;;;;;95.93;42.97;;;;;;;-1.02;100.00;98907.58;1605118;88;21081;-68
2022/01/28 13:10:27;;;;;;;43.73;25.37;;;;;;;-0.89;100.00;98872.91;1604922;88;21058;-71